Time;durP1;ratioP1;P1;durP2;ratioP2;P2;SDS_P1;SDS_P2;PMS_P1;PMS_P2;Temp;Humidity;BMP_temperature;BMP_pressure;BME280_temperature;BME280_humidity;BME280_pressure;Samples;Min_cycle;Max_cycle;Signal;HPM_P1;HPM_P2
2023/10/23 00:01:50;;;;;;;5.17;0.50;;;;;;;7.66;100.00;148084.38;5059819;28;20236;-52
2023/10/23 00:04:17;;;;;;;5.20;0.70;;;;;;;7.66;100.00;148085.63;5066627;28;20640;-53
2023/10/23 00:06:43;;;;;;;3.43;0.70;;;;;;;7.74;100.00;148103.03;5045154;28;20242;-53
2023/10/23 00:09:10;;;;;;;3.20;0.63;;;;;;;7.66;100.00;148085.63;5067755;28;20563;-51
2023/10/23 00:11:36;;;;;;;1.43;0.40;;;;;;;7.73;100.00;148101.75;5059185;28;20222;-53
2023/10/23 00:14:04;;;;;;;4.10;0.67;;;;;;;7.75;100.00;148105.53;5065908;28;20242;-54
2023/10/23 00:16:31;;;;;;;1.80;0.70;;;;;;;7.82;100.00;148122.94;5064612;28;20235;-51
2023/10/23 00:18:57;;;;;;;3.57;0.57;;;;;;;7.80;100.00;148119.16;5060936;28;20626;-54
2023/10/23 00:21:24;;;;;;;4.27;0.77;;;;;;;7.81;100.00;148121.66;5053965;28;20240;-51
2023/10/23 00:23:51;;;;;;;6.73;0.80;;;;;;;7.81;100.00;148121.66;5060207;28;20234;-53
2023/10/23 00:26:18;;;;;;;4.93;0.60;;;;;;;7.75;100.00;148106.75;5058959;28;20574;-52
2023/10/23 00:28:50;;;;;;;4.60;1.00;;;;;;;7.61;100.00;148071.94;5062227;28;20238;-51
2023/10/23 00:31:18;;;;;;;7.87;0.87;;;;;;;7.47;100.00;148039.63;5046263;28;20593;-52
2023/10/23 00:33:45;;;;;;;5.80;0.60;;;;;;;7.41;100.00;148023.47;5060924;28;20232;-52
2023/10/23 00:36:11;;;;;;;6.37;0.67;;;;;;;7.42;100.00;148027.19;5065549;28;20654;-51
2023/10/23 00:38:38;;;;;;;5.27;0.70;;;;;;;7.42;100.00;148025.97;5062056;28;20250;-53
2023/10/23 00:41:05;;;;;;;3.13;0.80;;;;;;;7.46;100.00;148037.13;5038864;28;20243;-52
2023/10/23 00:43:31;;;;;;;5.20;0.70;;;;;;;7.41;100.00;148024.75;5032718;28;20573;-51
2023/10/23 00:46:00;;;;;;;7.40;0.77;;;;;;;7.47;100.00;148038.41;5061566;28;20306;-51
2023/10/23 00:48:28;;;;;;;3.60;0.60;;;;;;;7.37;100.00;148016.03;5063758;28;20231;-52
2023/10/23 00:50:58;;;;;;;3.97;0.60;;;;;;;7.26;100.00;147987.47;5042860;28;20233;-52
2023/10/23 00:53:26;;;;;;;2.70;0.80;;;;;;;7.23;100.00;147981.22;5064597;28;20248;-54
2023/10/23 00:55:54;;;;;;;2.43;0.67;;;;;;;7.17;100.00;147966.31;5060692;28;20306;-54
2023/10/23 00:58:25;;;;;;;5.40;0.80;;;;;;;7.11;100.00;147952.66;5063632;28;20223;-51
2023/10/23 01:00:51;;;;;;;9.43;1.23;;;;;;;7.08;100.00;147945.22;5043072;28;20228;-51
2023/10/23 01:03:18;;;;;;;3.63;0.70;;;;;;;7.04;100.00;147936.47;5040575;28;20224;-53
2023/10/23 01:05:46;;;;;;;4.80;0.70;;;;;;;7.04;100.00;147936.47;5042914;28;20236;-54
2023/10/23 01:08:13;;;;;;;4.23;0.93;;;;;;;7.01;100.00;147929.03;5045334;28;20226;-51
2023/10/23 01:10:39;;;;;;;2.87;0.50;;;;;;;7.07;100.00;147943.94;5042390;28;20240;-53
2023/10/23 01:13:07;;;;;;;3.73;0.80;;;;;;;7.14;100.00;147958.84;5034479;28;20728;-54
2023/10/23 01:15:37;;;;;;;2.93;0.87;;;;;;;7.19;100.00;147971.28;5059868;28;20231;-51
2023/10/23 01:18:04;;;;;;;4.13;0.70;;;;;;;7.29;100.00;147996.13;5044759;28;20282;-54
2023/10/23 01:20:35;;;;;;;3.53;0.80;;;;;;;7.30;100.00;147997.41;5060013;28;20221;-54
2023/10/23 01:23:04;;;;;;;6.10;1.37;;;;;;;7.28;100.00;147993.66;5063668;28;20244;-53
2023/10/23 01:25:38;;;;;;;7.90;1.00;;;;;;;7.23;100.00;147981.22;5061729;28;20234;-54
2023/10/23 01:28:04;;;;;;;5.37;1.00;;;;;;;7.21;100.00;147977.53;5061076;28;20242;-53
2023/10/23 01:30:36;;;;;;;4.43;0.80;;;;;;;7.20;100.00;147975.03;5058659;28;20240;-53
2023/10/23 01:33:02;;;;;;;5.10;0.70;;;;;;;7.16;100.00;147963.81;5062244;28;20932;-54
2023/10/23 01:35:29;;;;;;;5.03;0.90;;;;;;;7.18;100.00;147970.06;5062215;28;20224;-53
2023/10/23 01:37:56;;;;;;;3.33;0.80;;;;;;;7.18;100.00;147968.78;5059102;28;20234;-52
2023/10/23 01:40:24;;;;;;;3.13;0.70;;;;;;;7.14;100.00;147960.13;5064292;28;21004;-51
2023/10/23 01:42:52;;;;;;;4.57;0.90;;;;;;;7.12;100.00;147955.16;5042175;28;20235;-53
2023/10/23 01:45:19;;;;;;;5.70;0.90;;;;;;;7.25;100.00;147986.19;5062332;28;20691;-53
2023/10/23 01:47:45;;;;;;;3.83;0.73;;;;;;;7.22;100.00;147980.00;5059420;28;20251;-51
2023/10/23 01:50:13;;;;;;;4.32;0.68;;;;;;;7.21;100.00;147977.53;5064176;28;20525;-51
2023/10/23 01:52:41;;;;;;;3.90;1.10;;;;;;;7.20;100.00;147973.78;5060101;28;20248;-51
2023/10/23 01:55:08;;;;;;;1.70;0.60;;;;;;;7.15;100.00;147961.34;5061836;28;20238;-53
2023/10/23 01:57:35;;;;;;;3.87;0.77;;;;;;;7.13;100.00;147957.63;5062610;28;20245;-54
2023/10/23 02:00:05;;;;;;;6.20;0.77;;;;;;;7.14;100.00;147960.13;5060595;28;20762;-53
2023/10/23 02:02:41;;;;;;;2.27;0.60;;;;;;;7.16;100.00;147963.81;5028156;28;20220;-54
2023/10/23 02:05:11;;;;;;;4.03;0.87;;;;;;;7.16;100.00;147963.81;5041567;28;20310;-52
2023/10/23 02:07:37;;;;;;;3.00;0.50;;;;;;;7.16;100.00;147963.81;5040741;28;20216;-52
2023/10/23 02:10:04;;;;;;;1.63;0.50;;;;;;;7.16;100.00;147963.81;5062071;28;20235;-54
2023/10/23 02:12:32;;;;;;;4.57;0.70;;;;;;;7.09;100.00;147947.69;5042356;28;20235;-54
2023/10/23 02:15:00;;;;;;;4.30;0.80;;;;;;;7.01;100.00;147927.81;5055919;28;20240;-52
2023/10/23 02:17:29;;;;;;;6.67;0.90;;;;;;;6.97;100.00;147917.88;5062153;28;20688;-52
2023/10/23 02:19:55;;;;;;;4.13;1.00;;;;;;;6.89;100.00;147900.47;5055467;28;22902;-52
2023/10/23 02:22:22;;;;;;;3.17;0.63;;;;;;;6.84;100.00;147888.06;5061957;28;20227;-52
2023/10/23 02:24:49;;;;;;;6.47;0.70;;;;;;;7.02;100.00;147930.28;5032275;28;20272;-52
2023/10/23 02:27:16;;;;;;;3.87;0.80;;;;;;;6.95;100.00;147914.13;5046714;28;20595;-52
2023/10/23 02:29:42;;;;;;;2.13;0.80;;;;;;;6.92;100.00;147906.66;5062334;28;20227;-53
2023/10/23 02:32:09;;;;;;;8.60;0.90;;;;;;;6.90;100.00;147902.97;5049952;28;20748;-52
2023/10/23 02:34:37;;;;;;;5.60;0.60;;;;;;;6.95;100.00;147914.13;5042663;28;20235;-53
2023/10/23 02:37:04;;;;;;;4.80;0.80;;;;;;;6.95;100.00;147914.13;5049597;28;20677;-52
2023/10/23 02:39:31;;;;;;;2.20;0.70;;;;;;;6.91;100.00;147905.44;5067761;28;20247;-53
2023/10/23 02:41:58;;;;;;;4.23;0.70;;;;;;;6.86;100.00;147893.03;5062889;28;20228;-52
2023/10/23 02:44:24;;;;;;;4.87;0.70;;;;;;;6.78;100.00;147874.41;5049520;28;20227;-54
2023/10/23 02:46:51;;;;;;;3.57;0.83;;;;;;;6.68;100.00;147849.56;5062322;28;20260;-54
2023/10/23 02:49:19;;;;;;;4.53;0.60;;;;;;;6.72;100.00;147858.22;5067826;28;20710;-52
2023/10/23 02:51:47;;;;;;;5.63;0.70;;;;;;;6.66;100.00;147844.59;5045879;28;20231;-52
2023/10/23 02:54:14;;;;;;;4.50;0.87;;;;;;;6.61;100.00;147832.16;5050395;28;20228;-52
2023/10/23 02:56:40;;;;;;;2.63;0.50;;;;;;;6.59;100.00;147827.19;5043782;28;20228;-52
2023/10/23 02:59:07;;;;;;;2.83;0.90;;;;;;;6.58;100.00;147825.94;5050877;28;20229;-52
2023/10/23 03:04:16;;;;;;;2.87;0.77;;;;;;;6.62;100.00;147835.88;5514531;22;20243;-52
2023/10/23 03:06:43;;;;;;;4.20;0.50;;;;;;;6.65;100.00;147842.09;5001220;28;20222;-54
2023/10/23 03:09:11;;;;;;;5.67;0.90;;;;;;;6.60;100.00;147829.69;5007328;28;20238;-53
2023/10/23 03:11:38;;;;;;;2.87;0.87;;;;;;;6.60;100.00;147830.91;5004525;28;20233;-54
2023/10/23 03:14:05;;;;;;;5.00;0.80;;;;;;;6.63;100.00;147837.13;5000529;28;20224;-54
2023/10/23 03:16:32;;;;;;;2.23;0.73;;;;;;;6.68;100.00;147849.56;5007502;28;20271;-52
2023/10/23 03:18:58;;;;;;;3.23;1.33;;;;;;;6.71;100.00;147855.75;5026070;28;20695;-54
2023/10/23 03:21:25;;;;;;;2.97;0.60;;;;;;;6.63;100.00;147837.13;5045463;28;20218;-52
2023/10/23 03:23:51;;;;;;;4.40;0.77;;;;;;;6.60;100.00;147829.69;5026124;28;20231;-52
2023/10/23 03:26:19;;;;;;;4.27;0.80;;;;;;;6.56;100.00;147820.97;5043927;28;20233;-53
2023/10/23 03:28:46;;;;;;;0.50;0.50;;;;;;;6.60;100.00;147830.91;5025864;28;20230;-52
2023/10/23 03:31:13;;;;;;;1.07;0.53;;;;;;;6.55;100.00;147818.47;5226859;22;20234;-54
2023/10/23 03:33:41;;;;;;;5.33;0.90;;;;;;;6.56;100.00;147820.97;5011478;28;20690;-54
2023/10/23 03:36:07;;;;;;;7.03;0.90;;;;;;;6.64;100.00;147840.84;5028006;28;20229;-52
2023/10/23 03:38:34;;;;;;;2.67;0.90;;;;;;;6.59;100.00;147828.41;5009136;28;20294;-54
2023/10/23 03:41:01;;;;;;;5.40;0.73;;;;;;;6.60;100.00;147830.91;5004332;28;20229;-52
2023/10/23 03:43:29;;;;;;;2.73;1.10;;;;;;;6.55;100.00;147817.25;4988466;28;20221;-52
2023/10/23 03:45:56;;;;;;;1.40;0.67;;;;;;;6.50;100.00;147807.31;5005028;28;20243;-54
2023/10/23 03:48:23;;;;;;;1.57;0.80;;;;;;;6.54;100.00;147816.00;4979615;28;20716;-53
2023/10/23 03:50:50;;;;;;;4.47;0.97;;;;;;;6.59;100.00;147828.41;4986739;28;20233;-54
2023/10/23 03:53:16;;;;;;;1.43;0.63;;;;;;;6.58;100.00;147825.94;5008098;28;20739;-52
2023/10/23 03:55:43;;;;;;;4.13;0.73;;;;;;;6.51;100.00;147808.53;5005025;28;20240;-52
2023/10/23 03:58:09;;;;;;;1.17;0.70;;;;;;;6.47;100.00;147798.59;5006462;28;20243;-52
2023/10/23 04:00:37;;;;;;;3.57;0.70;;;;;;;6.46;100.00;147797.41;5002868;28;20241;-54
2023/10/23 04:03:04;;;;;;;6.37;0.60;;;;;;;6.54;100.00;147814.78;5006390;28;20366;-53
2023/10/23 04:05:40;;;;;;;2.87;0.70;;;;;;;6.70;100.00;147853.25;5004772;28;20642;-52
2023/10/23 04:08:06;;;;;;;0.73;0.30;;;;;;;6.71;100.00;147855.75;5007695;28;20234;-53
2023/10/23 04:10:36;;;;;;;2.57;0.73;;;;;;;6.70;100.00;147854.53;5005745;28;20292;-53
2023/10/23 04:13:02;;;;;;;1.70;0.70;;;;;;;6.70;100.00;147853.25;5006834;28;20234;-53
2023/10/23 04:15:29;;;;;;;5.73;0.70;;;;;;;6.68;100.00;147849.56;5007075;28;20684;-54
2023/10/23 04:17:57;;;;;;;2.93;0.73;;;;;;;6.72;100.00;147859.50;5004311;28;20238;-53
2023/10/23 04:20:24;;;;;;;4.20;0.83;;;;;;;6.71;100.00;147857.03;5006728;28;20225;-52
2023/10/23 04:22:50;;;;;;;3.40;0.97;;;;;;;6.76;100.00;147868.16;5004659;28;20222;-52
2023/10/23 04:25:17;;;;;;;2.60;0.80;;;;;;;6.82;100.00;147881.88;5007116;28;20225;-54
2023/10/23 04:27:44;;;;;;;4.00;0.70;;;;;;;6.72;100.00;147858.22;5005958;28;20227;-54
2023/10/23 04:30:11;;;;;;;6.10;2.63;;;;;;;6.82;100.00;147881.88;5006670;28;20221;-52
2023/10/23 04:32:38;;;;;;;2.97;1.13;;;;;;;6.95;100.00;147914.13;5003431;28;20218;-54
2023/10/23 04:35:06;;;;;;;3.67;0.73;;;;;;;6.85;100.00;147890.53;5006919;28;20233;-54
2023/10/23 04:37:33;;;;;;;1.53;0.50;;;;;;;6.89;100.00;147899.25;5007059;28;20260;-52
2023/10/23 04:39:59;;;;;;;4.77;0.60;;;;;;;7.02;100.00;147931.50;4979758;28;20216;-53
2023/10/23 04:42:26;;;;;;;2.27;0.63;;;;;;;7.41;100.00;148023.47;5006616;28;20234;-52
2023/10/23 04:44:53;;;;;;;5.60;0.80;;;;;;;7.47;100.00;148039.63;5003841;28;20226;-54
2023/10/23 04:47:19;;;;;;;2.33;0.63;;;;;;;7.64;100.00;148079.38;5005693;28;20235;-52
2023/10/23 04:49:47;;;;;;;4.20;0.70;;;;;;;7.83;100.00;148126.63;5002465;28;20450;-54
2023/10/23 04:52:16;;;;;;;4.83;0.87;;;;;;;7.82;100.00;148122.94;5006601;28;20246;-54
2023/10/23 04:54:43;;;;;;;5.07;0.80;;;;;;;7.96;100.00;148157.69;5003042;28;20316;-53
2023/10/23 04:57:09;;;;;;;1.80;0.60;;;;;;;7.94;100.00;148151.50;5005317;28;20237;-52
2023/10/23 04:59:36;;;;;;;4.70;1.23;;;;;;;8.07;100.00;148183.81;4974188;28;20592;-54
2023/10/23 05:02:03;;;;;;;6.83;0.80;;;;;;;8.04;100.00;148176.38;5006681;28;20232;-53
2023/10/23 05:04:30;;;;;;;2.00;0.70;;;;;;;8.12;100.00;148196.25;5005686;28;20299;-54
2023/10/23 05:06:57;;;;;;;2.00;0.53;;;;;;;8.27;100.00;148231.09;5005024;28;20746;-54
2023/10/23 05:09:25;;;;;;;1.83;0.53;;;;;;;8.05;100.00;148177.59;5006599;28;20232;-55
2023/10/23 05:11:52;;;;;;;3.57;1.07;;;;;;;8.11;100.00;148193.78;5004395;28;20223;-56
2023/10/23 05:14:18;;;;;;;2.93;0.90;;;;;;;8.13;100.00;148198.75;5003723;28;20315;-54
2023/10/23 05:16:45;;;;;;;5.97;0.77;;;;;;;8.16;100.00;148204.94;5002301;28;20235;-54
2023/10/23 05:19:12;;;;;;;2.57;0.60;;;;;;;8.26;100.00;148228.59;5006467;28;20218;-52
2023/10/23 05:21:38;;;;;;;4.80;0.77;;;;;;;8.71;98.06;148338.06;5002069;28;20679;-54
2023/10/23 05:24:05;;;;;;;6.23;0.80;;;;;;;8.55;99.34;148299.50;5006410;28;20241;-54
2023/10/23 05:26:33;;;;;;;2.20;0.60;;;;;;;8.38;100.00;148258.44;5005803;28;20230;-53
2023/10/23 05:29:00;;;;;;;4.63;0.90;;;;;;;8.23;100.00;148221.13;5003886;28;20237;-52
2023/10/23 05:31:27;;;;;;;6.23;2.13;;;;;;;8.01;100.00;148167.63;5005820;28;20245;-53
2023/10/23 05:33:53;;;;;;;6.47;2.73;;;;;;;7.78;100.00;148112.97;5002491;28;20229;-52
2023/10/23 05:36:20;;;;;;;9.43;3.90;;;;;;;7.56;100.00;148060.78;4988588;28;20226;-52
2023/10/23 05:38:46;;;;;;;7.13;3.90;;;;;;;7.33;100.00;148004.84;5002891;28;20699;-53
2023/10/23 05:41:13;;;;;;;9.93;3.60;;;;;;;7.15;100.00;147961.34;5006698;28;20239;-53
2023/10/23 05:43:43;;;;;;;8.07;2.47;;;;;;;6.97;100.00;147917.88;5003010;28;20599;-53
2023/10/23 05:46:10;;;;;;;6.93;2.90;;;;;;;6.86;100.00;147891.81;5005882;28;20325;-53
2023/10/23 05:48:37;;;;;;;5.83;1.17;;;;;;;6.72;100.00;147858.22;5005011;28;20236;-54
2023/10/23 05:51:06;;;;;;;5.63;1.40;;;;;;;6.68;100.00;147849.56;5006160;28;20689;-54
2023/10/23 05:53:33;;;;;;;2.93;0.80;;;;;;;6.79;100.00;147875.63;5004177;28;20231;-54
2023/10/23 05:56:04;;;;;;;6.20;1.33;;;;;;;6.77;100.00;147871.94;5000475;28;20224;-54
2023/10/23 05:58:30;;;;;;;4.87;0.77;;;;;;;7.19;100.00;147971.28;5004058;28;20306;-54
2023/10/23 06:01:04;;;;;;;4.60;1.07;;;;;;;7.19;100.00;147971.28;5002634;28;20250;-53
2023/10/23 06:03:31;;;;;;;2.20;1.10;;;;;;;7.37;100.00;148016.03;5004328;28;20228;-51
2023/10/23 06:05:57;;;;;;;3.03;0.83;;;;;;;7.66;100.00;148084.38;5003558;28;20232;-51
2023/10/23 06:08:24;;;;;;;3.37;0.90;;;;;;;7.93;100.00;148149.00;5006511;28;20225;-53
2023/10/23 06:10:51;;;;;;;4.57;1.00;;;;;;;7.82;100.00;148124.16;5000291;28;20688;-53
2023/10/23 06:13:17;;;;;;;2.40;0.80;;;;;;;8.06;100.00;148180.06;5005321;28;20228;-54
2023/10/23 06:15:44;;;;;;;5.83;0.80;;;;;;;8.11;100.00;148192.50;4983640;28;20731;-54
2023/10/23 06:18:12;;;;;;;2.50;0.67;;;;;;;8.22;100.00;148218.66;4977499;28;20257;-55
2023/10/23 06:20:39;;;;;;;3.63;0.67;;;;;;;8.27;100.00;148231.09;5003477;28;20233;-54
2023/10/23 06:23:05;;;;;;;2.47;0.70;;;;;;;8.32;100.00;148243.53;5005655;28;20221;-52
2023/10/23 06:25:36;;;;;;;4.40;1.13;;;;;;;8.34;100.00;148247.22;5003238;28;20228;-52
2023/10/23 06:28:03;;;;;;;3.67;0.80;;;;;;;8.55;100.00;148299.50;5006953;28;20221;-52
2023/10/23 06:30:29;;;;;;;4.60;0.90;;;;;;;8.67;100.00;148326.88;5003861;28;20225;-52
2023/10/23 06:32:57;;;;;;;3.17;0.93;;;;;;;8.73;100.00;148341.81;4983927;28;21169;-52
2023/10/23 06:35:25;;;;;;;3.07;0.60;;;;;;;8.91;100.00;148384.09;5003725;28;20249;-53
2023/10/23 06:37:52;;;;;;;2.43;0.70;;;;;;;8.86;100.00;148372.88;5002291;28;20269;-52
2023/10/23 06:40:18;;;;;;;1.77;0.87;;;;;;;8.91;100.00;148385.31;5004488;28;20226;-53
2023/10/23 06:42:45;;;;;;;2.73;0.77;;;;;;;8.97;100.00;148400.25;5001309;28;20649;-52
2023/10/23 06:45:12;;;;;;;5.93;1.90;;;;;;;9.08;100.00;148426.38;4979955;28;20237;-53
2023/10/23 06:47:39;;;;;;;2.67;0.80;;;;;;;9.18;100.00;148450.03;5002026;28;20282;-54
2023/10/23 06:50:06;;;;;;;2.47;0.63;;;;;;;9.19;100.00;148452.53;4986648;28;20349;-53
2023/10/23 06:52:34;;;;;;;7.20;1.83;;;;;;;9.17;100.00;148447.53;5004174;28;20307;-55
2023/10/23 06:55:02;;;;;;;5.63;2.53;;;;;;;9.07;100.00;148422.66;5001712;28;20219;-52
2023/10/23 06:57:29;;;;;;;6.80;3.00;;;;;;;8.89;100.00;148379.13;5002428;28;20682;-54
2023/10/23 06:59:55;;;;;;;4.87;3.13;;;;;;;8.77;100.00;148350.50;5003525;28;20238;-55
2023/10/23 07:02:22;;;;;;;7.30;4.57;;;;;;;8.48;100.00;148280.84;5006740;28;20236;-55
2023/10/23 07:04:49;;;;;;;13.20;3.77;;;;;;;8.48;100.00;148282.06;5007904;28;20222;-55
2023/10/23 07:07:15;;;;;;;7.93;3.60;;;;;;;8.41;100.00;148265.91;5006272;28;20734;-54
2023/10/23 07:09:43;;;;;;;4.40;3.43;;;;;;;8.23;100.00;148222.34;5002342;28;20226;-54
2023/10/23 07:12:10;;;;;;;9.27;4.30;;;;;;;8.25;100.00;148227.34;5004579;28;20223;-55
2023/10/23 07:14:36;;;;;;;8.30;4.20;;;;;;;8.16;100.00;148203.72;5003976;28;20238;-54
2023/10/23 07:17:03;;;;;;;12.23;4.30;;;;;;;8.17;100.00;148206.22;5008271;28;20215;-54
2023/10/23 07:19:30;;;;;;;9.70;4.03;;;;;;;8.08;100.00;148185.03;5007577;28;20223;-53
2023/10/23 07:21:57;;;;;;;6.53;3.97;;;;;;;8.04;100.00;148175.09;5004637;28;20253;-53
2023/10/23 07:24:23;;;;;;;11.57;4.17;;;;;;;8.09;100.00;148188.81;5009487;28;20226;-55
2023/10/23 07:26:51;;;;;;;11.50;4.03;;;;;;;8.07;100.00;148182.56;5005521;28;20594;-52
2023/10/23 07:29:18;;;;;;;10.00;5.00;;;;;;;8.14;100.00;148199.97;5007675;28;20222;-55
2023/10/23 07:31:44;;;;;;;10.40;5.30;;;;;;;8.16;100.00;148203.72;5005129;28;20318;-55
2023/10/23 07:34:11;;;;;;;12.00;5.57;;;;;;;8.21;100.00;148217.38;5006952;28;20234;-55
2023/10/23 07:36:38;;;;;;;10.23;5.23;;;;;;;8.25;100.00;148227.34;5004204;28;20237;-55
2023/10/23 07:39:05;;;;;;;12.30;5.90;;;;;;;8.33;100.00;148244.75;5007253;28;20239;-55
2023/10/23 07:41:32;;;;;;;12.80;6.33;;;;;;;8.27;100.00;148232.31;5007049;28;20229;-52
2023/10/23 07:44:00;;;;;;;13.60;5.97;;;;;;;8.26;100.00;148229.81;5009568;28;20585;-55
2023/10/23 07:46:26;;;;;;;14.57;6.97;;;;;;;8.17;100.00;148206.22;5006728;28;20238;-55
2023/10/23 07:48:53;;;;;;;9.40;5.40;;;;;;;8.20;100.00;148213.66;5005398;28;20249;-55
2023/10/23 07:51:19;;;;;;;12.85;6.63;;;;;;;8.32;100.00;148243.53;4988343;28;20814;-55
2023/10/23 07:53:46;;;;;;;11.33;5.50;;;;;;;8.43;100.00;148269.63;5004209;28;20231;-55
2023/10/23 07:56:13;;;;;;;10.77;5.60;;;;;;;8.49;100.00;148283.31;5008376;28;20233;-55
2023/10/23 07:58:40;;;;;;;11.50;6.07;;;;;;;8.65;100.00;148321.91;5003588;28;20230;-54
2023/10/23 08:01:09;;;;;;;11.50;5.60;;;;;;;8.87;100.00;148375.38;5007693;28;20230;-55
2023/10/23 08:03:36;;;;;;;9.60;4.90;;;;;;;8.96;100.00;148396.53;5006142;28;20230;-55
2023/10/23 08:06:04;;;;;;;8.23;4.40;;;;;;;9.18;100.00;148450.03;5005742;28;20226;-55
2023/10/23 08:08:33;;;;;;;9.50;4.27;;;;;;;9.26;100.00;148469.94;5007390;28;20778;-55
2023/10/23 08:11:00;;;;;;;10.53;5.03;;;;;;;9.21;100.00;148457.50;5004072;28;20230;-54
2023/10/23 08:13:27;;;;;;;23.17;9.23;;;;;;;8.82;100.00;148362.94;5005852;28;20239;-52
2023/10/23 08:15:53;;;;;;;16.47;6.57;;;;;;;8.80;100.00;148359.22;5004902;28;20228;-52
2023/10/23 08:18:21;;;;;;;12.03;5.03;;;;;;;8.83;100.00;148365.44;5006270;28;20218;-54
2023/10/23 08:20:48;;;;;;;12.70;5.37;;;;;;;8.53;100.00;148294.53;5003405;28;20223;-53
2023/10/23 08:23:15;;;;;;;7.50;4.10;;;;;;;8.70;100.00;148334.34;5006529;28;20587;-54
2023/10/23 08:25:44;;;;;;;7.60;4.50;;;;;;;8.60;100.00;148309.47;4984613;28;20385;-53
2023/10/23 08:28:13;;;;;;;9.50;4.40;;;;;;;8.61;100.00;148313.19;5003794;28;20270;-54
2023/10/23 08:30:40;;;;;;;7.37;4.40;;;;;;;8.64;100.00;148320.63;5002822;28;20219;-54
2023/10/23 08:33:07;;;;;;;6.53;4.40;;;;;;;8.85;100.00;148371.66;5006057;28;20282;-53
2023/10/23 08:35:38;;;;;;;7.53;4.70;;;;;;;8.96;100.00;148397.78;5004425;28;20282;-55
2023/10/23 08:38:04;;;;;;;7.03;4.70;;;;;;;9.05;100.00;148418.91;5006740;28;20320;-53
2023/10/23 08:40:35;;;;;;;8.37;5.23;;;;;;;9.22;100.00;148460.00;5005705;28;20236;-55
2023/10/23 08:43:02;;;;;;;9.93;4.60;;;;;;;9.32;100.00;148482.38;5004203;28;20251;-53
2023/10/23 08:45:29;;;;;;;11.03;5.03;;;;;;;9.35;100.00;148491.06;5005661;28;20242;-53
2023/10/23 08:47:57;;;;;;;8.50;4.73;;;;;;;9.40;100.00;148503.53;5002130;28;20243;-52
2023/10/23 08:50:25;;;;;;;9.73;4.87;;;;;;;9.48;100.00;148522.22;4983695;28;20579;-52
2023/10/23 08:52:58;;;;;;;11.73;5.17;;;;;;;9.53;100.00;148534.66;4993556;28;20266;-52
2023/10/23 08:55:26;;;;;;;14.43;5.93;;;;;;;9.62;100.00;148554.53;5004966;28;20289;-53
2023/10/23 08:57:54;;;;;;;10.80;5.60;;;;;;;9.41;100.00;148506.00;5002887;28;20228;-54
2023/10/23 09:00:22;;;;;;;9.93;5.10;;;;;;;9.50;100.00;148525.94;5006573;28;20227;-52
2023/10/23 09:02:48;;;;;;;14.07;5.90;;;;;;;9.41;100.00;148506.00;5002321;28;20294;-53
2023/10/23 09:05:15;;;;;;;10.77;5.50;;;;;;;9.32;100.00;148483.59;5006969;28;20222;-53
2023/10/23 09:07:42;;;;;;;16.83;6.27;;;;;;;8.74;100.00;148343.03;5003869;28;20219;-54
2023/10/23 09:10:10;;;;;;;10.87;6.30;;;;;;;8.87;100.00;148375.38;5006433;28;20228;-53
2023/10/23 09:12:39;;;;;;;10.20;6.37;;;;;;;8.95;100.00;148395.28;5002400;28;20223;-53
2023/10/23 09:15:16;;;;;;;10.13;6.13;;;;;;;8.74;100.00;148344.28;5005805;28;20234;-54
2023/10/23 09:17:43;;;;;;;11.97;5.83;;;;;;;8.56;100.00;148300.72;5003981;28;20233;-52
2023/10/23 09:20:23;;;;;;;11.87;6.03;;;;;;;8.82;100.00;148362.94;5007066;28;20232;-53
2023/10/23 09:22:52;;;;;;;10.33;6.10;;;;;;;8.85;100.00;148370.41;5001986;28;20315;-52
2023/10/23 09:25:21;;;;;;;10.47;5.93;;;;;;;8.84;100.00;148367.91;5005947;28;20297;-54
2023/10/23 09:27:49;;;;;;;11.43;7.00;;;;;;;8.50;100.00;148287.06;5002466;28;20235;-52
2023/10/23 09:30:21;;;;;;;11.87;6.90;;;;;;;8.75;100.00;148345.50;5004582;28;20247;-53
2023/10/23 09:32:51;;;;;;;13.20;7.70;;;;;;;8.83;100.00;148365.44;5002261;28;20234;-52
2023/10/23 09:35:18;;;;;;;15.87;6.93;;;;;;;8.86;100.00;148374.16;5004274;28;20788;-54
2023/10/23 09:37:45;;;;;;;12.33;7.70;;;;;;;8.99;100.00;148405.25;5002650;28;20971;-53
2023/10/23 09:40:12;;;;;;;14.53;7.60;;;;;;;9.15;100.00;148442.56;5004527;28;20227;-54
2023/10/23 09:42:41;;;;;;;13.47;7.10;;;;;;;9.18;100.00;148450.03;5002211;28;20254;-55
2023/10/23 09:45:09;;;;;;;10.97;6.60;;;;;;;9.26;100.00;148468.66;5004769;28;20224;-54
2023/10/23 09:47:36;;;;;;;13.27;7.57;;;;;;;9.29;100.00;148477.41;5004076;28;20235;-54
2023/10/23 09:50:04;;;;;;;14.40;8.03;;;;;;;9.32;100.00;148482.38;5003302;28;20239;-54
2023/10/23 09:52:34;;;;;;;13.23;7.53;;;;;;;8.88;100.00;148377.88;5004941;28;20228;-53
2023/10/23 09:55:03;;;;;;;14.13;8.00;;;;;;;8.97;100.00;148399.03;5001406;28;20308;-52
2023/10/23 09:57:35;;;;;;;13.70;8.00;;;;;;;9.08;100.00;148426.38;5005758;28;20242;-53
2023/10/23 10:00:12;;;;;;;18.37;7.87;;;;;;;9.05;100.00;148417.69;4985836;28;20246;-53
2023/10/23 10:02:41;;;;;;;13.80;8.47;;;;;;;9.03;100.00;148413.91;5001919;28;20235;-52
2023/10/23 10:05:10;;;;;;;14.73;8.47;;;;;;;9.01;100.00;148410.22;5004835;28;20357;-51
2023/10/23 10:07:47;;;;;;;10.90;7.60;;;;;;;9.14;100.00;148440.06;5001762;28;20220;-54
2023/10/23 10:10:15;;;;;;;14.50;8.33;;;;;;;9.17;100.00;148447.53;5004666;28;20254;-55
2023/10/23 10:12:43;;;;;;;13.23;8.37;;;;;;;9.24;100.00;148464.97;5000803;28;20224;-54
2023/10/23 10:15:11;;;;;;;12.40;7.73;;;;;;;9.41;100.00;148504.78;5005895;28;20755;-54
2023/10/23 10:17:39;;;;;;;18.20;7.83;;;;;;;9.45;100.00;148515.97;5004434;28;20274;-52
2023/10/23 10:20:08;;;;;;;13.97;7.70;;;;;;;9.68;100.00;148569.47;5005126;28;20687;-53
2023/10/23 10:22:36;;;;;;;10.70;7.70;;;;;;;9.90;100.00;148623.03;5005036;28;20246;-54
2023/10/23 10:25:05;;;;;;;9.70;6.30;;;;;;;10.25;100.00;148707.66;5002806;28;20292;-52
2023/10/23 10:27:32;;;;;;;12.93;7.80;;;;;;;10.46;100.00;148758.78;4986780;28;20236;-51
2023/10/23 10:30:04;;;;;;;17.20;7.80;;;;;;;10.68;100.00;148809.81;5002277;28;20259;-50
2023/10/23 10:32:33;;;;;;;10.93;6.60;;;;;;;10.82;100.00;148843.44;5005366;28;20227;-51
2023/10/23 10:35:01;;;;;;;14.90;6.93;;;;;;;11.57;100.00;149024.09;5001004;28;20231;-52
2023/10/23 10:37:31;;;;;;;8.53;6.47;;;;;;;11.82;98.40;149085.16;5005107;28;20247;-56
2023/10/23 10:40:04;;;;;;;10.57;6.80;;;;;;;12.08;98.26;149148.78;5000613;28;20238;-51
2023/10/23 10:42:35;;;;;;;13.33;6.77;;;;;;;12.24;94.59;149187.44;4977266;28;20220;-53
2023/10/23 10:45:13;;;;;;;9.67;6.50;;;;;;;12.21;90.04;149179.94;5001339;28;20235;-50
2023/10/23 10:47:42;;;;;;;12.37;6.57;;;;;;;12.23;92.08;149184.94;5003365;28;20228;-51
2023/10/23 10:50:10;;;;;;;13.27;7.35;;;;;;;12.43;92.72;149231.06;5009295;28;20449;-51
2023/10/23 10:52:37;;;;;;;9.83;6.60;;;;;;;12.55;90.66;149262.25;5007283;28;20692;-50
2023/10/23 10:55:05;;;;;;;12.63;6.63;;;;;;;12.39;89.68;149222.34;5007407;28;20588;-51
2023/10/23 10:57:32;;;;;;;10.10;6.63;;;;;;;12.53;89.65;149256.00;5009146;28;20239;-51
2023/10/23 11:00:00;;;;;;;13.03;7.00;;;;;;;12.09;93.60;149150.03;5006544;28;20228;-52
2023/10/23 11:02:26;;;;;;;17.30;9.83;;;;;;;12.22;89.63;149182.44;5009069;28;20232;-51
2023/10/23 11:04:54;;;;;;;12.20;7.50;;;;;;;12.01;91.17;149130.06;5006387;28;20236;-51
2023/10/23 11:07:22;;;;;;;11.73;7.40;;;;;;;12.05;91.87;149140.03;5008182;28;20232;-52
2023/10/23 11:09:49;;;;;;;12.23;6.90;;;;;;;11.77;95.03;149072.69;5005961;28;20282;-51
2023/10/23 11:12:18;;;;;;;372.47;226.37;;;;;;;11.39;94.26;148981.72;5008075;28;20232;-50
2023/10/23 11:14:44;;;;;;;19.03;10.37;;;;;;;10.81;99.31;148842.22;4987858;28;20330;-51
2023/10/23 11:17:12;;;;;;;9.80;6.30;;;;;;;9.86;100.00;148613.06;5008065;28;20227;-51
2023/10/23 11:19:38;;;;;;;10.47;6.60;;;;;;;9.05;100.00;148417.69;5004457;28;20223;-51
2023/10/23 11:22:11;;;;;;;11.33;5.80;;;;;;;8.89;100.00;148379.13;5008542;28;20234;-50
2023/10/23 11:24:38;;;;;;;14.87;7.57;;;;;;;8.79;100.00;148356.72;5004650;28;20227;-50
2023/10/23 11:27:05;;;;;;;8.60;6.50;;;;;;;8.86;100.00;148374.16;5007930;28;20826;-52